createdAt,value
2024-03-16T00:01:22.369Z,10.20
2024-03-16T00:03:49.282Z,8.63
2024-03-16T00:06:15.966Z,9.75
2024-03-16T00:08:42.665Z,7.85
2024-03-16T00:11:09.398Z,11.05
2024-03-16T00:13:37.496Z,11.82
2024-03-16T00:16:05.566Z,10.00
2024-03-16T00:18:32.520Z,10.50
2024-03-16T00:20:59.385Z,11.82
2024-03-16T00:23:26.070Z,12.30
2024-03-16T00:25:52.800Z,9.95
2024-03-16T00:28:19.511Z,9.38
2024-03-16T00:30:46.200Z,13.70
2024-03-16T00:33:14.089Z,14.63
2024-03-16T00:35:41.421Z,11.45
2024-03-16T00:38:08.393Z,15.77
2024-03-16T00:40:35.212Z,15.40
2024-03-16T00:43:03.214Z,10.25
2024-03-16T00:45:30.135Z,13.55
2024-03-16T00:47:57.700Z,14.02
2024-03-16T00:50:24.609Z,11.75
2024-03-16T00:52:52.205Z,15.45
2024-03-16T00:55:19.655Z,14.98
2024-03-16T00:57:46.409Z,14.82
2024-03-16T01:00:15.835Z,12.85
2024-03-16T01:02:42.833Z,13.57
2024-03-16T01:05:09.766Z,10.02
2024-03-16T01:07:36.547Z,17.05
2024-03-16T01:10:03.686Z,8.65
2024-03-16T01:12:30.553Z,13.13
2024-03-16T01:14:58.487Z,16.40
2024-03-16T01:17:25.332Z,12.60
2024-03-16T01:19:52.075Z,13.48
2024-03-16T01:22:18.822Z,14.63
2024-03-16T01:24:45.611Z,15.52
2024-03-16T01:27:12.456Z,19.23
2024-03-16T01:29:39.646Z,16.25
2024-03-16T01:32:09.674Z,14.63
2024-03-16T01:34:37.076Z,15.27
2024-03-16T01:37:04.018Z,15.25
2024-03-16T01:39:33.597Z,14.20
2024-03-16T01:42:00.582Z,14.25
2024-03-16T01:44:27.348Z,17.10
2024-03-16T01:46:54.096Z,16.75
2024-03-16T01:49:20.787Z,15.65
2024-03-16T01:51:47.381Z,17.90
2024-03-16T01:54:14.432Z,21.73
2024-03-16T01:56:41.158Z,15.77
2024-03-16T01:59:07.878Z,11.75
2024-03-16T02:01:34.698Z,18.25
2024-03-16T02:04:01.519Z,18.45
2024-03-16T02:06:30.164Z,16.98
2024-03-16T02:08:58.103Z,17.73
2024-03-16T02:11:25.045Z,16.52
2024-03-16T02:13:52.363Z,16.63
2024-03-16T02:16:19.166Z,15.70
2024-03-16T02:18:46.205Z,21.15
2024-03-16T02:21:12.983Z,18.55
2024-03-16T02:23:41.089Z,22.55
2024-03-16T02:26:08.919Z,14.82
2024-03-16T02:28:35.836Z,14.75
2024-03-16T02:31:03.014Z,21.17
2024-03-16T02:33:30.072Z,18.90
2024-03-16T02:35:57.057Z,17.58
2024-03-16T02:38:24.218Z,16.13
2024-03-16T02:40:53.567Z,21.02
2024-03-16T02:43:20.683Z,18.38
2024-03-16T02:45:47.937Z,19.00
2024-03-16T02:48:14.846Z,23.23
2024-03-16T02:50:41.506Z,17.90
2024-03-16T02:53:09.615Z,21.77
2024-03-16T02:55:36.857Z,17.58
2024-03-16T02:58:03.775Z,22.75
2024-03-16T03:00:30.558Z,17.58
2024-03-16T03:02:58.711Z,17.25
2024-03-16T03:05:25.465Z,28.73
2024-03-16T03:07:52.181Z,21.27
2024-03-16T03:10:19.418Z,24.58
2024-03-16T03:12:47.096Z,17.58
2024-03-16T03:15:14.567Z,20.67
2024-03-16T03:17:41.305Z,19.48
2024-03-16T03:20:10.334Z,17.60
2024-03-16T03:22:37.514Z,20.80
2024-03-16T03:25:05.073Z,19.20
2024-03-16T03:27:32.114Z,18.83
2024-03-16T03:29:58.953Z,19.58
2024-03-16T03:32:25.753Z,20.55
2024-03-16T03:34:52.483Z,22.77
2024-03-16T03:37:19.233Z,22.65
2024-03-16T03:39:47.930Z,20.27
2024-03-16T03:42:15.948Z,26.45
2024-03-16T03:44:51.527Z,21.02
2024-03-16T03:47:18.377Z,17.80
2024-03-16T03:49:52.095Z,21.23
2024-03-16T03:52:19.210Z,20.60
2024-03-16T03:54:46.057Z,24.20
2024-03-16T03:57:12.876Z,23.52
2024-03-16T03:59:39.544Z,23.05
2024-03-16T04:02:06.357Z,25.27
2024-03-16T04:04:32.999Z,23.50
2024-03-16T04:06:59.736Z,24.60
2024-03-16T04:09:26.478Z,26.45
2024-03-16T04:11:53.089Z,32.85
2024-03-16T04:14:20.702Z,24.58
2024-03-16T04:16:48.880Z,27.80
2024-03-16T04:19:17.531Z,30.98
2024-03-16T04:21:45.055Z,25.55
2024-03-16T04:24:11.921Z,29.05
2024-03-16T04:26:39.103Z,21.88
2024-03-16T04:29:07.162Z,25.10
2024-03-16T04:31:34.063Z,30.20
2024-03-16T04:34:00.965Z,28.10
2024-03-16T04:36:27.707Z,30.83
2024-03-16T04:38:54.416Z,27.50
2024-03-16T04:41:21.185Z,32.92
2024-03-16T04:43:48.592Z,30.25
2024-03-16T04:46:15.491Z,29.02
2024-03-16T04:48:42.187Z,32.20
2024-03-16T04:51:08.920Z,30.17
2024-03-16T04:53:35.465Z,32.50
2024-03-16T04:56:02.450Z,27.33
2024-03-16T04:58:29.200Z,30.52
2024-03-16T05:00:55.872Z,27.08
2024-03-16T05:03:22.513Z,29.98
2024-03-16T05:05:51.772Z,35.45
2024-03-16T05:08:18.389Z,25.30
2024-03-16T05:10:51.405Z,35.40
2024-03-16T05:13:18.168Z,33.17
2024-03-16T05:15:44.908Z,29.00
2024-03-16T05:18:13.777Z,31.33
2024-03-16T05:20:40.446Z,36.90
2024-03-16T05:23:07.077Z,31.65
2024-03-16T05:25:33.648Z,34.65
2024-03-16T05:28:00.483Z,24.05
2024-03-16T05:30:27.355Z,35.85
2024-03-16T05:32:54.116Z,31.20
2024-03-16T05:35:20.861Z,27.63
2024-03-16T05:37:47.463Z,27.05
2024-03-16T05:40:14.141Z,32.95
2024-03-16T05:42:41.398Z,25.27
2024-03-16T05:45:08.596Z,30.15
2024-03-16T05:47:35.284Z,29.65
2024-03-16T05:50:02.004Z,27.48
2024-03-16T05:52:28.594Z,30.15
2024-03-16T05:54:55.976Z,29.75
2024-03-16T05:57:23.215Z,27.73
2024-03-16T05:59:49.965Z,32.42
2024-03-16T06:02:16.669Z,25.38
2024-03-16T06:04:43.530Z,32.85
2024-03-16T06:07:10.333Z,28.40
2024-03-16T06:09:37.169Z,33.92
2024-03-16T06:12:04.206Z,29.83
2024-03-16T06:14:30.846Z,31.63
2024-03-16T06:16:58.271Z,21.38
2024-03-16T06:19:24.933Z,27.83
2024-03-16T06:21:51.850Z,29.75
2024-03-16T06:24:18.752Z,26.63
2024-03-16T06:26:53.653Z,26.17
2024-03-16T06:29:27.143Z,17.27
2024-03-16T06:31:55.340Z,23.83
2024-03-16T06:34:22.013Z,24.83
2024-03-16T06:36:49.928Z,23.02
2024-03-16T06:39:22.752Z,21.10
2024-03-16T06:41:50.979Z,25.17
2024-03-16T06:44:18.477Z,20.30
2024-03-16T06:46:45.010Z,23.95
2024-03-16T06:49:12.136Z,13.85
2024-03-16T06:51:38.759Z,14.80
2024-03-16T06:54:05.554Z,26.55
2024-03-16T06:56:32.457Z,16.95
2024-03-16T06:59:00.548Z,12.77
2024-03-16T07:01:27.384Z,11.75
2024-03-16T07:03:54.165Z,11.02
2024-03-16T07:06:21.018Z,12.88
2024-03-16T07:08:47.740Z,11.45
2024-03-16T07:11:14.454Z,11.20
2024-03-16T07:13:41.223Z,10.88
2024-03-16T07:16:13.018Z,9.93
2024-03-16T07:18:39.670Z,7.93
2024-03-16T07:21:06.442Z,4.70
2024-03-16T07:23:33.014Z,5.63
2024-03-16T07:25:59.857Z,5.07
2024-03-16T07:28:26.669Z,5.10
2024-03-16T07:30:59.799Z,4.70
2024-03-16T07:33:26.661Z,3.90
2024-03-16T07:35:53.493Z,5.30
2024-03-16T07:38:20.736Z,5.90
2024-03-16T07:40:48.319Z,6.63
2024-03-16T07:43:15.112Z,4.97
2024-03-16T07:45:43.999Z,4.40
2024-03-16T07:48:11.031Z,5.55
2024-03-16T07:50:37.840Z,4.65
2024-03-16T07:53:04.826Z,3.95
2024-03-16T07:55:31.934Z,8.63
2024-03-16T07:57:58.629Z,6.78
2024-03-16T08:00:25.388Z,6.70
2024-03-16T08:02:52.122Z,9.05
2024-03-16T08:05:19.384Z,5.68
2024-03-16T08:07:48.537Z,8.50
2024-03-16T08:10:15.244Z,5.82
2024-03-16T08:12:42.724Z,5.72
2024-03-16T08:15:10.616Z,8.25
2024-03-16T08:17:37.338Z,5.50
2024-03-16T08:20:05.953Z,7.68
2024-03-16T08:22:32.637Z,5.13
2024-03-16T08:24:59.452Z,4.13
2024-03-16T08:27:32.059Z,5.88
2024-03-16T08:30:00.951Z,4.15
2024-03-16T08:32:27.692Z,9.05
2024-03-16T08:34:55.980Z,5.13
2024-03-16T08:37:22.966Z,9.27
2024-03-16T08:39:49.848Z,3.50
2024-03-16T08:42:16.819Z,4.78
2024-03-16T08:44:43.568Z,3.28
2024-03-16T08:47:10.456Z,3.95
2024-03-16T08:49:37.176Z,7.75
2024-03-16T08:52:05.045Z,9.20
2024-03-16T08:54:33.778Z,7.70
2024-03-16T08:57:01.274Z,7.45
2024-03-16T08:59:29.293Z,6.90
2024-03-16T09:01:56.198Z,6.82
2024-03-16T09:04:23.005Z,5.32
2024-03-16T09:06:49.778Z,3.47
2024-03-16T09:09:17.674Z,8.10
2024-03-16T09:11:44.830Z,4.18
2024-03-16T09:14:11.976Z,6.60
2024-03-16T09:16:42.244Z,5.90
2024-03-16T09:19:09.170Z,3.88
2024-03-16T09:21:36.492Z,7.40
2024-03-16T09:24:03.931Z,5.75
2024-03-16T09:26:30.750Z,6.78
2024-03-16T09:28:57.600Z,4.05
2024-03-16T09:31:27.248Z,3.17
2024-03-16T09:33:54.252Z,5.95
2024-03-16T09:36:21.243Z,5.32
2024-03-16T09:38:48.981Z,5.82
2024-03-16T09:41:19.959Z,4.90
